Time;durP1;ratioP1;P1;durP2;ratioP2;P2;SDS_P1;SDS_P2;PMS_P1;PMS_P2;Temp;Humidity;BMP_temperature;BMP_pressure;BME280_temperature;BME280_humidity;BME280_pressure;Samples;Min_cycle;Max_cycle;Signal;HPM_P1;HPM_P2
2022/11/08 04:02:04;;;;;;;0.75;0.63;;;16.40;52.40;;;;;;5179865;23;45509;-61
2022/11/08 04:04:30;;;;;;;1.23;0.77;;;16.40;52.40;;;;;;4941277;28;45627;-65
2022/11/08 04:06:55;;;;;;;0.52;0.50;;;16.40;52.40;;;;;;4935890;28;45181;-61
2022/11/08 04:09:21;;;;;;;0.50;0.50;;;16.40;52.40;;;;;;4921815;28;45482;-62
2022/11/08 04:17:15;;;;;;;0.70;0.70;;;16.40;52.40;;;;;;4932908;28;45533;-61
2022/11/08 04:22:27;;;;;;;0.88;0.70;;;16.40;53.00;;;;;;4945822;28;45469;-60
2022/11/08 04:24:53;;;;;;;0.88;0.63;;;16.40;52.40;;;;;;4938546;28;45867;-62
2022/11/08 04:27:18;;;;;;;2.40;0.60;;;16.40;52.40;;;;;;4934691;28;45344;-59
2022/11/08 04:29:44;;;;;;;0.60;0.60;;;16.40;52.40;;;;;;4941990;28;45284;-60
2022/11/08 04:32:09;;;;;;;0.55;0.50;;;16.40;52.40;;;;;;4925879;28;44910;-63
2022/11/08 04:34:35;;;;;;;1.02;0.50;;;16.40;52.40;;;;;;4941181;28;45935;-57
2022/11/08 04:37:00;;;;;;;0.50;0.50;;;16.40;52.40;;;;;;4939150;28;45301;-62
2022/11/08 04:39:26;;;;;;;0.95;0.60;;;16.40;52.40;;;;;;4938909;28;45122;-57
2022/11/08 04:41:51;;;;;;;0.93;0.80;;;16.40;52.40;;;;;;4939678;28;46049;-60
2022/11/08 04:44:17;;;;;;;0.70;0.60;;;16.40;52.40;;;;;;4942144;28;46224;-59
2022/11/08 04:46:43;;;;;;;0.98;0.80;;;16.30;52.40;;;;;;4938026;28;45739;-60
2022/11/08 04:49:08;;;;;;;0.60;0.60;;;16.40;52.40;;;;;;4936143;28;44872;-62
2022/11/08 04:51:34;;;;;;;0.70;0.60;;;16.40;52.40;;;;;;4947471;28;45209;-59
2022/11/08 04:54:00;;;;;;;0.70;0.65;;;16.30;52.40;;;;;;4938177;28;46211;-62
2022/11/08 04:56:27;;;;;;;1.02;0.80;;;16.30;52.40;;;;;;4938447;28;45429;-56
2022/11/08 04:58:54;;;;;;;0.75;0.70;;;16.30;52.40;;;;;;4937394;28;44730;-62
2022/11/08 05:01:21;;;;;;;1.13;0.90;;;16.40;52.40;;;;;;4936665;28;46276;-62
2022/11/08 05:03:48;;;;;;;1.00;0.63;;;16.30;52.40;;;;;;4940440;28;46316;-61
2022/11/08 05:06:16;;;;;;;0.93;0.80;;;16.30;52.40;;;;;;4932213;28;45255;-61
2022/11/08 05:08:41;;;;;;;2.65;0.60;;;16.30;52.40;;;;;;4941291;28;44702;-59
2022/11/08 05:11:09;;;;;;;0.63;0.60;;;16.30;52.40;;;;;;4936798;28;44979;-61
2022/11/08 05:13:35;;;;;;;0.63;0.63;;;16.30;52.30;;;;;;4938756;28;46118;-61
2022/11/08 05:16:02;;;;;;;0.60;0.57;;;16.30;52.40;;;;;;4937601;28;45043;-62
2022/11/08 05:18:28;;;;;;;0.68;0.65;;;16.30;52.40;;;;;;4937354;28;45610;-61
2022/11/08 05:23:39;;;;;;;0.90;0.60;;;16.30;52.40;;;;;;4943040;28;45307;-63
2022/11/08 05:26:05;;;;;;;1.42;0.80;;;16.30;52.40;;;;;;4900851;28;45598;-64
2022/11/08 05:28:30;;;;;;;0.98;0.60;;;16.30;52.40;;;;;;4933330;28;45510;-61
2022/11/08 05:30:56;;;;;;;1.10;0.73;;;16.30;52.40;;;;;;4923456;28;45234;-61
2022/11/08 05:33:22;;;;;;;0.90;0.80;;;16.30;52.40;;;;;;4938342;28;46098;-62
2022/11/08 05:35:48;;;;;;;1.00;0.80;;;16.30;52.40;;;;;;4938391;28;45584;-62
2022/11/08 05:38:13;;;;;;;0.80;0.73;;;16.30;52.30;;;;;;4936055;28;46332;-62
2022/11/08 05:40:39;;;;;;;1.45;0.75;;;16.30;52.40;;;;;;4937145;28;45149;-65
2022/11/08 05:43:04;;;;;;;0.68;0.60;;;16.30;52.40;;;;;;4940749;28;46001;-62
2022/11/08 05:45:30;;;;;;;0.65;0.52;;;16.30;52.40;;;;;;4940515;28;45264;-62
2022/11/08 05:47:56;;;;;;;0.50;0.50;;;16.30;52.40;;;;;;4939084;28;45115;-61
2022/11/08 05:50:23;;;;;;;0.77;0.70;;;16.30;52.40;;;;;;4936461;28;46233;-62
2022/11/08 05:52:52;;;;;;;0.88;0.73;;;16.30;52.40;;;;;;4943799;28;47036;-62
2022/11/08 05:55:17;;;;;;;0.75;0.70;;;16.30;52.40;;;;;;4942263;28;45499;-62
2022/11/08 05:57:43;;;;;;;0.85;0.68;;;16.30;52.40;;;;;;4920824;28;45302;-66
2022/11/08 06:00:10;;;;;;;0.90;0.70;;;16.30;52.40;;;;;;4915745;28;45684;-60
2022/11/08 06:02:36;;;;;;;0.70;0.70;;;16.30;52.40;;;;;;4930154;28;46431;-63
2022/11/08 06:05:01;;;;;;;1.40;0.85;;;16.30;52.40;;;;;;4935793;28;45534;-62
2022/11/08 06:07:27;;;;;;;1.38;0.73;;;16.30;52.40;;;;;;4936620;28;45365;-62
2022/11/08 06:09:53;;;;;;;0.50;0.50;;;16.30;52.40;;;;;;4939985;28;45207;-64
2022/11/08 06:12:19;;;;;;;0.80;0.60;;;16.30;52.40;;;;;;4933234;28;45674;-62
2022/11/08 06:14:45;;;;;;;0.80;0.77;;;16.30;52.40;;;;;;4945018;28;44661;-63
2022/11/08 06:17:10;;;;;;;0.82;0.80;;;16.30;52.40;;;;;;4941667;28;44998;-62
2022/11/08 06:19:36;;;;;;;1.55;0.40;;;16.30;52.30;;;;;;4938208;28;45245;-60
2022/11/08 06:22:01;;;;;;;0.70;0.60;;;16.30;52.30;;;;;;4930735;28;45951;-60
2022/11/08 06:24:27;;;;;;;1.85;0.68;;;16.30;52.40;;;;;;4939808;28;45550;-62
2022/11/08 06:26:52;;;;;;;0.85;0.70;;;16.30;52.40;;;;;;4925444;28;45449;-62
2022/11/08 06:29:18;;;;;;;0.80;0.70;;;16.30;52.40;;;;;;4945786;28;45719;-63
2022/11/08 06:31:43;;;;;;;0.88;0.70;;;16.30;52.40;;;;;;4918947;28;45952;-65
2022/11/08 06:34:09;;;;;;;1.00;0.82;;;16.30;52.40;;;;;;4942924;28;45219;-61
2022/11/08 06:36:35;;;;;;;0.80;0.60;;;16.30;52.40;;;;;;4927796;28;45576;-62
2022/11/08 06:39:00;;;;;;;0.80;0.80;;;16.30;52.40;;;;;;4937350;28;46093;-62
2022/11/08 06:41:26;;;;;;;0.90;0.70;;;16.30;52.40;;;;;;4938392;28;46021;-62
2022/11/08 06:43:51;;;;;;;1.08;0.60;;;16.30;52.40;;;;;;4930019;28;45276;-60
2022/11/08 06:46:17;;;;;;;0.60;0.55;;;16.20;52.30;;;;;;4935767;28;45535;-66
2022/11/08 06:48:42;;;;;;;1.85;0.70;;;16.30;52.40;;;;;;4942312;28;45189;-62
2022/11/08 06:51:08;;;;;;;1.20;0.60;;;16.30;52.40;;;;;;4940519;28;45381;-63
2022/11/08 06:53:33;;;;;;;0.95;0.68;;;16.20;52.40;;;;;;4938503;28;45245;-63
2022/11/08 06:56:00;;;;;;;0.73;0.65;;;16.20;52.30;;;;;;4937233;28;45342;-62
2022/11/08 06:58:26;;;;;;;0.95;0.70;;;16.20;52.30;;;;;;4938430;28;45386;-66
2022/11/08 07:00:51;;;;;;;0.77;0.70;;;16.20;52.30;;;;;;4937529;28;46096;-60
2022/11/08 07:03:17;;;;;;;0.93;0.70;;;16.30;52.40;;;;;;4939486;28;45158;-63
2022/11/08 07:05:42;;;;;;;0.57;0.57;;;16.30;52.30;;;;;;4921635;28;45549;-58
2022/11/08 07:08:08;;;;;;;0.75;0.60;;;16.30;52.30;;;;;;4939631;28;45571;-63
2022/11/08 07:10:33;;;;;;;1.15;0.82;;;16.20;52.30;;;;;;4941313;28;45924;-62
2022/11/08 07:13:03;;;;;;;0.80;0.80;;;16.20;52.80;;;;;;4931712;28;44700;-64
2022/11/08 07:15:29;;;;;;;0.75;0.70;;;16.20;52.30;;;;;;4919557;28;45944;-61
2022/11/08 07:18:02;;;;;;;0.80;0.60;;;16.30;52.30;;;;;;4920663;28;44684;-65
2022/11/08 07:20:27;;;;;;;0.83;0.77;;;16.20;52.30;;;;;;4921691;28;46713;-60
2022/11/08 07:22:56;;;;;;;1.23;0.75;;;16.20;52.30;;;;;;4935811;28;45347;-60
2022/11/08 07:25:22;;;;;;;0.70;0.63;;;16.20;52.30;;;;;;4934738;28;45584;-62
2022/11/08 07:27:47;;;;;;;0.80;0.65;;;16.20;52.30;;;;;;4933082;28;45654;-61
2022/11/08 07:30:13;;;;;;;0.88;0.80;;;16.30;52.30;;;;;;4926880;28;46177;-61
2022/11/08 07:32:38;;;;;;;0.73;0.73;;;16.20;52.30;;;;;;4912164;28;45559;-60
2022/11/08 07:35:04;;;;;;;0.80;0.70;;;16.30;52.30;;;;;;4932103;28;45216;-63
2022/11/08 07:37:31;;;;;;;1.48;0.80;;;16.30;52.20;;;;;;4931746;28;45085;-63
2022/11/08 07:39:56;;;;;;;0.70;0.70;;;16.30;52.30;;;;;;4929284;28;45821;-63
2022/11/08 07:42:22;;;;;;;0.65;0.65;;;16.30;52.30;;;;;;4939676;28;44624;-64
2022/11/08 07:44:48;;;;;;;0.77;0.70;;;16.30;52.30;;;;;;4935870;28;44809;-63
2022/11/08 07:47:13;;;;;;;0.70;0.70;;;16.30;52.30;;;;;;4918139;28;45594;-62
2022/11/08 07:49:39;;;;;;;0.70;0.70;;;16.30;52.30;;;;;;4938888;28;46298;-63
2022/11/08 07:52:04;;;;;;;0.60;0.60;;;16.30;52.30;;;;;;4939430;28;44956;-63
2022/11/08 07:54:30;;;;;;;0.93;0.70;;;16.30;52.30;;;;;;4935959;28;45121;-66
2022/11/08 07:56:55;;;;;;;0.70;0.70;;;16.30;52.30;;;;;;4931570;28;45321;-62
2022/11/08 07:59:21;;;;;;;1.00;0.73;;;16.30;52.30;;;;;;4938750;28;46933;-62
2022/11/08 08:01:46;;;;;;;0.88;0.68;;;16.30;52.30;;;;;;4933354;28;45359;-64
2022/11/08 08:04:12;;;;;;;0.40;0.40;;;16.30;52.30;;;;;;4925853;28;45572;-60
2022/11/08 08:06:38;;;;;;;0.90;0.70;;;16.30;52.20;;;;;;4941459;28;45613;-63
2022/11/08 08:09:03;;;;;;;0.68;0.60;;;16.40;52.10;;;;;;4924696;28;45394;-63
2022/11/08 08:11:29;;;;;;;0.70;0.65;;;16.40;52.00;;;;;;4934752;28;45247;-62
2022/11/08 08:13:56;;;;;;;0.70;0.70;;;16.40;52.00;;;;;;4936170;28;45352;-63
2022/11/08 08:16:22;;;;;;;0.90;0.63;;;16.30;52.10;;;;;;4922368;28;45652;-64
2022/11/08 08:18:50;;;;;;;0.50;0.50;;;16.30;52.20;;;;;;4933232;28;45561;-61
2022/11/08 08:21:16;;;;;;;1.48;0.60;;;16.30;52.20;;;;;;4919047;28;45199;-61
2022/11/08 08:23:41;;;;;;;1.00;0.70;;;16.30;52.20;;;;;;4919494;28;45508;-62
2022/11/08 08:26:07;;;;;;;0.70;0.60;;;16.30;52.20;;;;;;4933390;28;44734;-61
2022/11/08 08:28:33;;;;;;;0.80;0.65;;;16.30;52.30;;;;;;4939142;28;45979;-62
2022/11/08 08:30:58;;;;;;;0.70;0.50;;;16.30;52.20;;;;;;4917917;28;45421;-61
2022/11/08 08:33:24;;;;;;;0.60;0.60;;;16.30;52.20;;;;;;4937135;28;45189;-64
2022/11/08 08:35:53;;;;;;;0.70;0.57;;;16.30;52.10;;;;;;4926761;28;44899;-64
2022/11/08 08:38:19;;;;;;;0.70;0.60;;;16.30;52.10;;;;;;4939219;28;45298;-63
2022/11/08 08:40:44;;;;;;;0.88;0.70;;;16.40;52.20;;;;;;4934109;28;45542;-63
2022/11/08 08:43:10;;;;;;;0.60;0.60;;;16.40;52.10;;;;;;4936155;28;45276;-63
2022/11/08 08:45:36;;;;;;;0.95;0.70;;;16.40;52.10;;;;;;4935607;28;45523;-63
2022/11/08 08:48:02;;;;;;;0.77;0.70;;;16.40;52.10;;;;;;4938031;28;46286;-63
2022/11/08 08:50:28;;;;;;;0.65;0.65;;;16.40;52.10;;;;;;4938708;28;45291;-64
2022/11/08 08:52:58;;;;;;;0.77;0.65;;;16.40;52.10;;;;;;4934942;28;44655;-64
2022/11/08 08:55:23;;;;;;;0.45;0.35;;;16.40;52.00;;;;;;4939436;28;45015;-66
2022/11/08 08:57:49;;;;;;;0.60;0.60;;;16.40;52.00;;;;;;4936903;28;46557;-64
2022/11/08 09:00:15;;;;;;;0.65;0.65;;;16.40;52.00;;;;;;4936617;28;44681;-62
2022/11/08 09:02:41;;;;;;;0.60;0.60;;;16.40;52.00;;;;;;4917567;28;44670;-63
2022/11/08 09:05:07;;;;;;;0.73;0.70;;;16.50;52.10;;;;;;4926679;28;45029;-64
2022/11/08 09:07:32;;;;;;;0.50;0.40;;;16.40;51.90;;;;;;4925562;28;46426;-62
2022/11/08 09:09:58;;;;;;;0.60;0.60;;;16.40;51.90;;;;;;4917716;28;45079;-65
2022/11/08 09:12:23;;;;;;;0.82;0.68;;;16.50;51.90;;;;;;4909993;28;45599;-63
2022/11/08 09:14:49;;;;;;;0.40;0.40;;;16.50;51.90;;;;;;4918706;28;45110;-63
2022/11/08 09:17:14;;;;;;;0.68;0.60;;;16.50;51.90;;;;;;4926400;28;46099;-64
2022/11/08 09:19:40;;;;;;;0.73;0.68;;;16.50;51.90;;;;;;4918347;28;45295;-63
2022/11/08 09:22:06;;;;;;;0.70;0.60;;;16.50;51.80;;;;;;4912066;28;45221;-62
2022/11/08 09:24:33;;;;;;;0.60;0.60;;;16.50;51.90;;;;;;4918129;28;44643;-63
2022/11/08 09:27:02;;;;;;;1.05;0.80;;;16.50;51.80;;;;;;4919456;28;46278;-59
2022/11/08 09:29:29;;;;;;;0.95;0.70;;;16.50;51.80;;;;;;4928743;28;45229;-64
2022/11/08 09:31:54;;;;;;;1.45;0.68;;;16.50;51.80;;;;;;4902189;28;45117;-61
2022/11/08 09:34:20;;;;;;;0.88;0.73;;;16.50;51.80;;;;;;4921102;28;45317;-63
2022/11/08 09:36:45;;;;;;;0.57;0.52;;;16.50;51.80;;;;;;4926895;28;45848;-62
2022/11/08 09:39:11;;;;;;;0.55;0.55;;;16.50;51.90;;;;;;4916676;28;45189;-62
2022/11/08 09:41:49;;;;;;;1.10;0.80;;;16.50;51.80;;;;;;4918361;28;45161;-65
2022/11/08 09:44:43;;;;;;;1.25;0.77;;;16.60;51.80;;;;;;4885648;28;44762;-63
2022/11/08 09:47:13;;;;;;;0.80;0.60;;;16.60;51.70;;;;;;4900075;28;46507;-63
2022/11/08 09:49:41;;;;;;;0.57;0.57;;;16.50;51.80;;;;;;4907712;28;45477;-61
2022/11/08 09:52:08;;;;;;;0.60;0.60;;;16.50;51.70;;;;;;4917488;28;45257;-62
2022/11/08 09:54:38;;;;;;;0.60;0.60;;;16.60;51.80;;;;;;4889065;28;45561;-62
2022/11/08 09:57:04;;;;;;;0.50;0.50;;;16.60;51.80;;;;;;4908719;28;46138;-63
2022/11/08 09:59:47;;;;;;;0.65;0.60;;;16.60;51.70;;;;;;4922254;28;45982;-63
2022/11/08 10:02:19;;;;;;;1.42;0.93;;;16.60;51.70;;;;;;4916278;28;45336;-66
2022/11/08 10:04:48;;;;;;;1.35;0.68;;;16.60;51.80;;;;;;4922142;28;45107;-61
2022/11/08 10:07:55;;;;;;;0.60;0.60;;;16.60;51.70;;;;;;4945464;28;45310;-66
2022/11/08 10:10:47;;;;;;;0.70;0.70;;;16.60;51.80;;;;;;4882418;29;45283;-62
2022/11/08 10:13:39;;;;;;;0.73;0.52;;;16.60;51.70;;;;;;4842836;29;44938;-61
2022/11/08 10:16:28;;;;;;;0.50;0.50;;;16.60;51.70;;;;;;4917606;28;45197;-63
2022/11/08 10:19:47;;;;;;;1.15;0.80;;;16.60;51.70;;;;;;4935915;28;44878;-61
2022/11/08 10:22:17;;;;;;;0.68;0.60;;;16.60;51.60;;;;;;4927532;28;45296;-64
2022/11/08 10:25:01;;;;;;;0.70;0.50;;;16.60;51.70;;;;;;4943954;28;45075;-65
2022/11/08 10:27:38;;;;;;;0.77;0.68;;;16.70;51.70;;;;;;4940790;28;45231;-62
2022/11/08 10:30:08;;;;;;;0.60;0.50;;;16.70;51.70;;;;;;4918024;28;46280;-62
2022/11/08 10:32:34;;;;;;;0.70;0.63;;;16.70;51.70;;;;;;4936051;28;45331;-61
2022/11/08 10:35:11;;;;;;;0.70;0.70;;;16.70;51.70;;;;;;4940456;28;45277;-64
2022/11/08 10:37:38;;;;;;;0.60;0.55;;;16.70;51.60;;;;;;4941703;28;45427;-61
2022/11/08 10:40:10;;;;;;;0.75;0.70;;;16.70;51.70;;;;;;4920987;28;46081;-63
2022/11/08 10:42:37;;;;;;;0.50;0.50;;;16.70;51.70;;;;;;4945299;28;45151;-59
2022/11/08 10:45:03;;;;;;;0.73;0.73;;;16.70;51.70;;;;;;4933659;28;45503;-62
2022/11/08 10:47:30;;;;;;;0.60;0.50;;;16.70;51.70;;;;;;4937487;28;45169;-58
2022/11/08 10:49:58;;;;;;;0.73;0.57;;;16.70;51.70;;;;;;4925438;28;45904;-66
2022/11/08 10:52:33;;;;;;;0.45;0.45;;;16.70;51.60;;;;;;4933355;28;45082;-62
2022/11/08 10:54:59;;;;;;;0.63;0.60;;;16.70;51.60;;;;;;4943653;28;46021;-65
2022/11/08 10:57:37;;;;;;;0.88;0.70;;;16.70;51.60;;;;;;4935758;28;45805;-64
2022/11/08 11:00:22;;;;;;;0.50;0.50;;;16.70;51.60;;;;;;4940977;28;45521;-63
2022/11/08 11:03:09;;;;;;;0.77;0.65;;;16.70;51.60;;;;;;4937383;28;45923;-63
2022/11/08 11:05:42;;;;;;;0.60;0.60;;;16.70;51.60;;;;;;4939453;28;45102;-65
2022/11/08 11:08:08;;;;;;;0.70;0.65;;;16.70;51.60;;;;;;4934887;28;45511;-61
2022/11/08 11:10:37;;;;;;;0.50;0.50;;;16.70;51.60;;;;;;4941904;28;47050;-63
2022/11/08 11:13:32;;;;;;;0.63;0.63;;;16.70;51.60;;;;;;4942024;28;44862;-62
2022/11/08 11:15:59;;;;;;;0.70;0.52;;;16.80;51.60;;;;;;4928029;28;45244;-63
2022/11/08 11:18:45;;;;;;;0.40;0.40;;;16.80;51.70;;;;;;4921112;28;44789;-63
2022/11/08 11:21:17;;;;;;;0.55;0.55;;;16.80;51.60;;;;;;4937779;28;45239;-63
2022/11/08 11:23:54;;;;;;;0.70;0.60;;;16.70;51.60;;;;;;4941039;28;45042;-66
2022/11/08 11:26:28;;;;;;;0.50;0.50;;;16.80;51.70;;;;;;4935651;28;45486;-61
2022/11/08 11:29:03;;;;;;;0.50;0.50;;;16.80;51.70;;;;;;4941799;28;44973;-63
2022/11/08 11:31:39;;;;;;;0.75;0.55;;;16.80;51.70;;;;;;4936040;28;46112;-63
2022/11/08 11:34:17;;;;;;;0.40;0.40;;;16.80;51.80;;;;;;4935068;28;44990;-63
2022/11/08 11:37:19;;;;;;;0.55;0.45;;;16.80;51.70;;;;;;4935829;28;45529;-63
2022/11/08 11:39:52;;;;;;;0.73;0.60;;;16.80;51.60;;;;;;4888481;28;45457;-66
2022/11/08 11:42:31;;;;;;;;;;;16.80;51.70;;;;;;4915610;28;46189;-62
2022/11/08 11:45:16;;;;;;;0.40;0.40;;;16.80;51.70;;;;;;4936274;28;45647;-65
2022/11/08 11:47:47;;;;;;;1.80;0.70;;;16.80;51.60;;;;;;4931141;28;45508;-63
2022/11/08 11:50:27;;;;;;;0.77;0.43;;;16.80;51.60;;;;;;4937821;28;45391;-63
2022/11/08 11:52:57;;;;;;;1.10;0.52;;;16.80;51.60;;;;;;4945166;28;45550;-62
2022/11/08 11:55:40;;;;;;;0.90;0.50;;;16.80;51.60;;;;;;4936003;28;45831;-62
2022/11/08 11:58:25;;;;;;;0.55;0.55;;;16.80;51.60;;;;;;4929527;28;45395;-63
2022/11/08 12:01:01;;;;;;;0.60;0.60;;;16.80;51.60;;;;;;4918609;28;45616;-62
2022/11/08 12:03:35;;;;;;;0.65;0.60;;;16.80;51.60;;;;;;4933032;28;46161;-64
2022/11/08 12:06:51;;;;;;;1.08;0.80;;;16.80;51.60;;;;;;4937913;28;45177;-65
2022/11/08 12:09:30;;;;;;;0.68;0.60;;;16.80;51.60;;;;;;4899456;28;45079;-61
2022/11/08 12:12:11;;;;;;;0.88;0.70;;;16.80;51.60;;;;;;4937544;28;45203;-60
2022/11/08 12:14:47;;;;;;;0.60;0.57;;;16.80;51.60;;;;;;4936987;28;45402;-62
2022/11/08 12:17:34;;;;;;;0.50;0.50;;;16.80;51.60;;;;;;4931515;28;45459;-63
2022/11/08 12:20:20;;;;;;;0.43;0.40;;;16.80;51.60;;;;;;4941027;28;44953;-61
2022/11/08 12:22:49;;;;;;;0.73;0.60;;;16.80;51.60;;;;;;4934021;28;45379;-63
2022/11/08 12:25:33;;;;;;;0.40;0.40;;;16.90;51.60;;;;;;4945192;28;46021;-62
2022/11/08 12:28:24;;;;;;;0.68;0.68;;;16.90;51.60;;;;;;4939067;28;44991;-62
2022/11/08 12:31:05;;;;;;;0.73;0.70;;;16.80;51.70;;;;;;4933536;28;45300;-61
2022/11/08 12:33:33;;;;;;;0.50;0.50;;;16.80;51.60;;;;;;4919975;28;45497;-60
2022/11/08 12:35:59;;;;;;;0.60;0.40;;;16.80;51.60;;;;;;4929298;28;46272;-61
2022/11/08 12:39:01;;;;;;;0.80;0.65;;;16.90;51.60;;;;;;4935245;28;44824;-62
2022/11/08 12:41:37;;;;;;;0.52;0.52;;;16.90;51.60;;;;;;4908038;28;45603;-65
2022/11/08 12:44:31;;;;;;;0.68;0.55;;;16.90;51.70;;;;;;4940094;28;45513;-63
2022/11/08 12:47:16;;;;;;;0.73;0.63;;;16.90;51.60;;;;;;4956317;28;45685;-63
2022/11/08 12:50:12;;;;;;;0.68;0.60;;;16.80;51.70;;;;;;4933785;28;46766;-63
2022/11/08 12:53:02;;;;;;;1.17;0.77;;;16.80;51.70;;;;;;4924090;28;45169;-63
2022/11/08 12:55:35;;;;;;;0.73;0.70;;;16.80;51.70;;;;;;4937559;28;47659;-62
2022/11/08 12:58:02;;;;;;;0.65;0.60;;;16.80;51.60;;;;;;4910338;28;45228;-63
2022/11/08 13:00:27;;;;;;;0.80;0.68;;;16.90;51.70;;;;;;4936520;28;45360;-64
2022/11/08 13:03:23;;;;;;;0.50;0.50;;;16.90;51.60;;;;;;4917717;28;46243;-64
2022/11/08 13:05:59;;;;;;;0.65;0.52;;;16.90;51.70;;;;;;4918149;28;45382;-60
2022/11/08 13:08:39;;;;;;;0.65;0.60;;;16.90;51.70;;;;;;4905360;28;45685;-62
2022/11/08 13:11:06;;;;;;;0.60;0.47;;;16.80;51.70;;;;;;4919721;28;45240;-66
2022/11/08 13:13:53;;;;;;;0.65;0.60;;;16.80;51.70;;;;;;4916685;28;45483;-62
2022/11/08 13:16:34;;;;;;;0.45;0.45;;;16.80;51.80;;;;;;4924795;28;45208;-61
2022/11/08 13:19:06;;;;;;;0.50;0.50;;;16.80;51.80;;;;;;4934398;28;45959;-64
2022/11/08 13:21:33;;;;;;;0.60;0.52;;;16.80;51.90;;;;;;4937349;28;45292;-61
2022/11/08 13:24:01;;;;;;;0.50;0.50;;;16.80;51.90;;;;;;4935087;28;44836;-63
2022/11/08 13:26:28;;;;;;;4.95;0.60;;;16.80;51.90;;;;;;4939712;28;45264;-61
2022/11/08 13:28:53;;;;;;;0.30;0.30;;;16.80;52.00;;;;;;4926479;28;46082;-62
2022/11/08 13:31:22;;;;;;;0.50;0.50;;;16.80;52.00;;;;;;4922447;28;44693;-62
2022/11/08 13:34:02;;;;;;;0.60;0.60;;;16.80;52.00;;;;;;4919185;28;45194;-66
2022/11/08 13:36:55;;;;;;;0.60;0.60;;;16.80;52.00;;;;;;4920909;28;45605;-63
2022/11/08 13:39:40;;;;;;;0.50;0.50;;;16.80;52.00;;;;;;4923704;28;46087;-62
2022/11/08 13:42:15;;;;;;;0.52;0.52;;;16.80;51.90;;;;;;4932529;28;45304;-64
2022/11/08 13:45:07;;;;;;;0.50;0.40;;;16.80;52.00;;;;;;4940167;28;45212;-62
2022/11/08 13:47:32;;;;;;;0.50;0.50;;;16.80;51.90;;;;;;4897291;28;45296;-64
2022/11/08 13:50:26;;;;;;;0.70;0.70;;;16.80;52.00;;;;;;4928501;28;45447;-64
2022/11/08 13:53:18;;;;;;;1.58;0.70;;;16.80;51.90;;;;;;4940637;28;44633;-62
2022/11/08 13:55:44;;;;;;;0.50;0.50;;;16.80;52.50;;;;;;4926591;28;45029;-60
2022/11/08 13:58:38;;;;;;;0.73;0.73;;;16.80;52.00;;;;;;4922585;28;45177;-63
2022/11/08 14:01:17;;;;;;;0.80;0.57;;;16.80;51.90;;;;;;4921893;28;45232;-59
2022/11/08 14:03:46;;;;;;;1.83;0.70;;;16.80;52.00;;;;;;4935277;28;45637;-63
2022/11/08 14:06:28;;;;;;;0.60;0.60;;;16.80;52.00;;;;;;4935144;28;45232;-60
2022/11/08 14:09:24;;;;;;;0.90;0.60;;;16.80;52.00;;;;;;4932411;28;44995;-64
2022/11/08 14:12:10;;;;;;;0.60;0.60;;;16.80;51.90;;;;;;4919740;28;45608;-62
2022/11/08 14:14:59;;;;;;;0.40;0.40;;;16.90;51.90;;;;;;4942587;28;45022;-62
2022/11/08 14:17:29;;;;;;;0.52;0.50;;;16.80;51.90;;;;;;4893563;28;45692;-62
2022/11/08 14:19:56;;;;;;;0.60;0.60;;;16.90;51.90;;;;;;4937016;28;45672;-61
2022/11/08 14:22:26;;;;;;;0.60;0.60;;;16.80;51.90;;;;;;4920949;28;45336;-64
2022/11/08 14:24:53;;;;;;;1.80;0.50;;;16.80;51.90;;;;;;4935817;28;45463;-63
2022/11/08 14:27:36;;;;;;;0.70;0.70;;;16.80;52.00;;;;;;4937724;28;45220;-62
2022/11/08 14:30:03;;;;;;;0.50;0.50;;;16.80;51.90;;;;;;4938416;28;45200;-64
2022/11/08 14:32:29;;;;;;;0.40;0.40;;;16.80;51.90;;;;;;4930117;28;45415;-60
2022/11/08 14:35:10;;;;;;;0.82;0.68;;;16.80;52.00;;;;;;4943131;28;44734;-63
2022/11/08 14:37:36;;;;;;;0.60;0.50;;;16.90;51.90;;;;;;4939662;28;45669;-62
2022/11/08 14:40:01;;;;;;;0.82;0.63;;;16.80;51.90;;;;;;4941117;28;45466;-61
2022/11/08 14:42:27;;;;;;;0.90;0.65;;;16.80;51.90;;;;;;4922331;28;47042;-61
2022/11/08 14:44:54;;;;;;;0.43;0.43;;;16.80;51.90;;;;;;4942121;28;45383;-62
2022/11/08 14:47:29;;;;;;;0.50;0.50;;;16.90;52.00;;;;;;4934721;28;45039;-63
2022/11/08 14:49:55;;;;;;;0.80;0.60;;;16.80;52.00;;;;;;4938742;28;45176;-60
2022/11/08 14:52:30;;;;;;;0.65;0.60;;;16.80;52.00;;;;;;4939319;28;46240;-62
2022/11/08 14:55:03;;;;;;;0.70;0.70;;;16.80;52.00;;;;;;4942012;28;45280;-62
2022/11/08 14:57:36;;;;;;;0.70;0.47;;;16.80;52.00;;;;;;4941100;28;45279;-65
2022/11/08 15:00:15;;;;;;;0.50;0.40;;;16.80;52.00;;;;;;4945430;28;45713;-63
2022/11/08 15:02:43;;;;;;;1.08;0.50;;;16.80;52.00;;;;;;4938833;28;45194;-61
2022/11/08 15:05:36;;;;;;;0.50;0.50;;;16.80;52.00;;;;;;4933435;28;45632;-63
2022/11/08 15:08:03;;;;;;;0.40;0.40;;;16.80;52.00;;;;;;4931607;28;45509;-64
2022/11/08 15:10:29;;;;;;;0.60;0.55;;;16.80;52.10;;;;;;4942147;28;45467;-62
2022/11/08 15:12:54;;;;;;;0.40;0.40;;;16.80;52.10;;;;;;4943222;28;46005;-63
2022/11/08 15:15:25;;;;;;;0.88;0.50;;;16.80;52.10;;;;;;4940076;28;45198;-62
2022/11/08 15:18:11;;;;;;;0.50;0.50;;;16.80;52.10;;;;;;4944375;28;45499;-62
2022/11/08 15:20:37;;;;;;;0.63;0.60;;;16.80;52.10;;;;;;4939641;28;45208;-65
2022/11/08 15:23:23;;;;;;;1.08;0.65;;;16.80;52.10;;;;;;4902465;28;46872;-63
2022/11/08 15:25:59;;;;;;;0.65;0.65;;;16.80;52.10;;;;;;4935798;28;45587;-63
2022/11/08 15:28:30;;;;;;;0.40;0.40;;;16.80;52.10;;;;;;4942458;28;45552;-63
2022/11/08 15:30:57;;;;;;;0.43;0.43;;;16.80;52.20;;;;;;4936068;28;45686;-66
2022/11/08 15:33:33;;;;;;;0.88;0.68;;;16.80;52.10;;;;;;4934038;28;45109;-62
2022/11/08 15:35:58;;;;;;;0.50;0.50;;;16.80;52.20;;;;;;4934668;28;45220;-62
2022/11/08 15:38:31;;;;;;;0.60;0.60;;;16.80;52.20;;;;;;4923623;28;45276;-59
2022/11/08 15:40:58;;;;;;;0.47;0.47;;;16.80;52.20;;;;;;4939111;28;45618;-62
2022/11/08 15:43:30;;;;;;;0.65;0.60;;;16.80;52.20;;;;;;4937425;28;45827;-61
2022/11/08 15:45:57;;;;;;;0.68;0.68;;;16.80;52.20;;;;;;4940208;28;45181;-62
2022/11/08 15:48:23;;;;;;;0.40;0.40;;;16.80;52.20;;;;;;4948761;28;44759;-62
2022/11/08 15:50:48;;;;;;;0.70;0.70;;;16.80;52.20;;;;;;4938620;28;45458;-62
2022/11/08 15:53:14;;;;;;;0.93;0.60;;;16.80;52.20;;;;;;4946071;28;46050;-61
2022/11/08 15:55:47;;;;;;;0.75;0.68;;;16.80;52.20;;;;;;4935020;28;45114;-60
2022/11/08 15:58:20;;;;;;;0.40;0.40;;;16.80;52.20;;;;;;4919095;28;45215;-61
2022/11/08 16:00:46;;;;;;;0.60;0.57;;;16.80;52.20;;;;;;4937779;28;45479;-63
2022/11/08 16:03:12;;;;;;;0.55;0.52;;;16.70;52.20;;;;;;4946360;28;45992;-62
2022/11/08 16:05:38;;;;;;;0.40;0.40;;;16.80;52.20;;;;;;4933963;28;45559;-61
2022/11/08 16:08:03;;;;;;;0.65;0.60;;;16.80;52.20;;;;;;4925708;28;45744;-62
2022/11/08 16:11:02;;;;;;;0.60;0.52;;;16.80;52.20;;;;;;4944833;28;45359;-62
2022/11/08 16:13:33;;;;;;;0.60;0.60;;;16.80;52.20;;;;;;4879541;28;46725;-62
2022/11/08 16:15:58;;;;;;;0.60;0.60;;;16.80;52.20;;;;;;4920343;28;45553;-61
2022/11/08 16:18:24;;;;;;;0.60;0.60;;;16.80;52.20;;;;;;4919406;28;44800;-62
2022/11/08 16:20:50;;;;;;;0.70;0.63;;;16.80;52.20;;;;;;4900034;28;45263;-65
2022/11/08 16:23:16;;;;;;;0.55;0.55;;;16.80;52.80;;;;;;4924319;28;46146;-62
2022/11/08 16:25:49;;;;;;;0.60;0.60;;;16.80;52.20;;;;;;4920353;28;46560;-62
2022/11/08 16:28:23;;;;;;;0.32;0.30;;;16.80;52.20;;;;;;4932421;28;45205;-64
2022/11/08 16:30:48;;;;;;;0.63;0.52;;;16.80;52.20;;;;;;4920696;28;45512;-63
2022/11/08 16:33:18;;;;;;;0.68;0.60;;;16.80;52.20;;;;;;4938675;28;46269;-63
2022/11/08 16:35:44;;;;;;;0.60;0.50;;;16.80;52.20;;;;;;4934383;28;44596;-61
2022/11/08 16:38:10;;;;;;;0.55;0.55;;;16.80;52.20;;;;;;4935124;28;45220;-62
2022/11/08 16:40:35;;;;;;;0.50;0.50;;;16.80;52.20;;;;;;4937335;28;45499;-62
2022/11/08 16:43:01;;;;;;;0.82;0.63;;;16.80;52.30;;;;;;4940867;28;45129;-65
2022/11/08 16:45:26;;;;;;;0.60;0.60;;;16.70;52.20;;;;;;4936552;28;45213;-63
2022/11/08 16:47:52;;;;;;;0.40;0.40;;;16.80;52.20;;;;;;4917963;28;45040;-63
2022/11/08 16:50:24;;;;;;;0.40;0.40;;;16.70;52.20;;;;;;4923736;28;45571;-63
2022/11/08 16:52:49;;;;;;;0.50;0.47;;;16.80;52.20;;;;;;4921760;28;46156;-65
2022/11/08 16:55:16;;;;;;;0.82;0.60;;;16.80;52.20;;;;;;4936178;28;45145;-62
2022/11/08 16:57:42;;;;;;;0.93;0.70;;;16.70;52.20;;;;;;4936571;28;45885;-63
2022/11/08 17:00:09;;;;;;;0.70;0.70;;;16.80;52.20;;;;;;4940621;28;44790;-63
2022/11/08 17:02:36;;;;;;;0.80;0.57;;;16.70;52.20;;;;;;4935941;28;45916;-62
2022/11/08 17:05:01;;;;;;;0.63;0.57;;;16.70;52.10;;;;;;4912145;28;45301;-63
2022/11/08 17:07:27;;;;;;;0.85;0.70;;;16.80;52.20;;;;;;4937647;28;45979;-62
2022/11/08 17:09:53;;;;;;;1.05;0.57;;;16.70;52.20;;;;;;4937295;28;45526;-62
2022/11/08 17:12:19;;;;;;;0.95;0.80;;;16.70;52.10;;;;;;4937392;28;45428;-66
2022/11/08 17:14:44;;;;;;;0.60;0.60;;;16.70;52.10;;;;;;4939772;28;45530;-61
2022/11/08 17:17:11;;;;;;;0.40;0.40;;;16.80;52.20;;;;;;4914743;28;45117;-60
2022/11/08 17:19:36;;;;;;;0.70;0.40;;;16.80;52.20;;;;;;4933810;28;45610;-61